Time;durP1;ratioP1;P1;durP2;ratioP2;P2;SDS_P1;SDS_P2;PMS_P1;PMS_P2;Temp;Humidity;BMP_temperature;BMP_pressure;BME280_temperature;BME280_humidity;BME280_pressure;Samples;Min_cycle;Max_cycle;Signal;HPM_P1;HPM_P2
2021/04/21 00:01:50;;;;;;;2.63;2.42;;;;;;;;;;5055523;28;20199;-42
2021/04/21 00:04:17;;;;;;;2.55;2.35;;;;;;;;;;5066404;28;20205;-42
2021/04/21 00:06:44;;;;;;;2.55;2.10;;;;;;;;;;5076088;28;20250;-42
2021/04/21 00:09:12;;;;;;;3.83;2.90;;;;;;;;;;5075457;28;20182;-42
2021/04/21 00:11:39;;;;;;;2.75;2.55;;;;;;;;;;5070712;28;20542;-42
2021/04/21 00:14:05;;;;;;;2.67;2.47;;;;;;;;;;5062901;28;20260;-42
2021/04/21 00:16:33;;;;;;;3.58;3.05;;;;;;;;;;5055774;28;20167;-42
2021/04/21 00:19:00;;;;;;;2.70;2.40;;;;;;;;;;5055705;28;20214;-42
2021/04/21 00:21:27;;;;;;;2.65;2.45;;;;;;;;;;5055284;28;20189;-42
2021/04/21 00:23:53;;;;;;;2.92;2.63;;;;;;;;;;5059235;28;20178;-42
2021/04/21 00:26:20;;;;;;;2.42;2.22;;;;;;;;;;5074220;28;20281;-42
2021/04/21 00:28:46;;;;;;;2.58;2.38;;;;;;;;;;5062351;28;20577;-42
2021/04/21 00:31:13;;;;;;;2.95;2.60;;;;;;;;;;5074747;28;20179;-42
2021/04/21 00:33:40;;;;;;;2.60;2.40;;;;;;;;;;5074710;28;20584;-42
2021/04/21 00:36:07;;;;;;;3.28;2.50;;;;;;;;;;5056664;28;20202;-42
2021/04/21 00:38:35;;;;;;;2.90;2.60;;;;;;;;;;5055125;28;20305;-42
2021/04/21 00:41:10;;;;;;;3.25;2.67;;;;;;;;;;5054055;28;20709;-42
2021/04/21 00:43:39;;;;;;;2.95;2.35;;;;;;;;;;5057123;28;20186;-42
2021/04/21 00:46:27;;;;;;;2.60;2.40;;;;;;;;;;5054546;28;20294;-42
2021/04/21 00:49:09;;;;;;;2.83;2.50;;;;;;;;;;5055414;28;20182;-42
2021/04/21 00:51:42;;;;;;;3.53;2.40;;;;;;;;;;5074032;28;20576;-41
2021/04/21 00:54:15;;;;;;;3.05;2.80;;;;;;;;;;5074407;28;20259;-42
2021/04/21 00:57:00;;;;;;;3.05;2.75;;;;;;;;;;5073540;28;20183;-42
2021/04/21 00:59:26;;;;;;;2.80;2.35;;;;;;;;;;5065473;28;20214;-42
2021/04/21 01:01:52;;;;;;;2.60;2.40;;;;;;;;;;5072123;28;20213;-42
2021/04/21 01:04:19;;;;;;;2.42;2.22;;;;;;;;;;5075028;28;20570;-42
2021/04/21 01:06:46;;;;;;;2.92;2.40;;;;;;;;;;5074315;28;20189;-42
2021/04/21 01:09:13;;;;;;;3.08;2.78;;;;;;;;;;5073936;28;20301;-42
2021/04/21 01:11:43;;;;;;;2.17;2.05;;;;;;;;;;5070115;28;20610;-42
2021/04/21 01:14:12;;;;;;;2.75;2.30;;;;;;;;;;5055072;28;20179;-42
2021/04/21 01:16:39;;;;;;;2.50;2.30;;;;;;;;;;5058667;28;20179;-42
2021/04/21 01:19:10;;;;;;;2.65;2.45;;;;;;;;;;5064121;28;20234;-42
2021/04/21 01:21:38;;;;;;;3.00;2.80;;;;;;;;;;5054222;28;20179;-42
2021/04/21 01:24:04;;;;;;;2.80;2.55;;;;;;;;;;5054637;28;20187;-42
2021/04/21 01:26:47;;;;;;;2.60;2.38;;;;;;;;;;5063851;28;20227;-42
2021/04/21 01:29:16;;;;;;;3.25;2.55;;;;;;;;;;5063498;28;20182;-42
2021/04/21 01:31:43;;;;;;;3.40;2.60;;;;;;;;;;5064208;28;20248;-42
2021/04/21 01:34:10;;;;;;;2.90;2.30;;;;;;;;;;5067115;28;20186;-42
2021/04/21 01:36:37;;;;;;;2.65;2.45;;;;;;;;;;5054533;28;20182;-42
2021/04/21 01:39:04;;;;;;;2.30;2.10;;;;;;;;;;5057969;28;20204;-42
2021/04/21 01:41:34;;;;;;;2.72;2.40;;;;;;;;;;5072311;28;20653;-42
2021/04/21 01:44:02;;;;;;;2.60;2.40;;;;;;;;;;5054465;28;20187;-42
2021/04/21 01:46:30;;;;;;;2.63;2.28;;;;;;;;;;5055894;28;20179;-42
2021/04/21 01:49:05;;;;;;;2.50;2.30;;;;;;;;;;5054797;28;20615;-42
2021/04/21 01:51:33;;;;;;;2.40;2.20;;;;;;;;;;5068786;28;20178;-42
2021/04/21 01:54:04;;;;;;;2.50;2.30;;;;;;;;;;5058544;28;20198;-42
2021/04/21 01:56:38;;;;;;;2.60;2.40;;;;;;;;;;5059716;28;20186;-42
2021/04/21 01:59:24;;;;;;;2.45;2.25;;;;;;;;;;5064486;28;20204;-42
2021/04/21 02:01:56;;;;;;;2.72;2.47;;;;;;;;;;5058879;28;20601;-41
2021/04/21 02:04:30;;;;;;;2.50;2.30;;;;;;;;;;5058261;28;20254;-41
2021/04/21 02:07:01;;;;;;;2.60;2.40;;;;;;;;;;5058162;28;20530;-41
2021/04/21 02:09:48;;;;;;;2.85;2.45;;;;;;;;;;5070543;28;20187;-41
2021/04/21 02:12:33;;;;;;;2.47;2.28;;;;;;;;;;5061039;28;20174;-41
2021/04/21 02:15:10;;;;;;;2.25;2.13;;;;;;;;;;5076945;28;20194;-41
2021/04/21 02:17:46;;;;;;;2.40;2.20;;;;;;;;;;5058133;28;20190;-41
2021/04/21 02:20:21;;;;;;;2.58;2.38;;;;;;;;;;5067105;28;20194;-41
2021/04/21 02:22:47;;;;;;;2.65;2.45;;;;;;;;;;5077097;28;20182;-41
2021/04/21 02:25:20;;;;;;;2.38;2.17;;;;;;;;;;5073288;28;20224;-41
2021/04/21 02:28:09;;;;;;;2.17;2.05;;;;;;;;;;5068405;28;20226;-41
2021/04/21 02:30:44;;;;;;;2.60;2.38;;;;;;;;;;5057432;28;20183;-41
2021/04/21 02:33:13;;;;;;;2.13;2.03;;;;;;;;;;5057755;28;20189;-42
2021/04/21 02:35:58;;;;;;;2.38;2.22;;;;;;;;;;5056860;28;20183;-42
2021/04/21 02:38:33;;;;;;;2.25;2.05;;;;;;;;;;5057272;28;20185;-42
2021/04/21 02:41:05;;;;;;;2.45;2.22;;;;;;;;;;5061225;28;20190;-41
2021/04/21 02:43:40;;;;;;;2.17;2.00;;;;;;;;;;5063691;28;20584;-41
2021/04/21 02:46:24;;;;;;;2.17;2.00;;;;;;;;;;5057707;28;20212;-41
2021/04/21 02:49:01;;;;;;;2.40;2.20;;;;;;;;;;5067763;28;20189;-41
2021/04/21 02:51:39;;;;;;;2.30;2.10;;;;;;;;;;5058993;28;20214;-42
2021/04/21 02:54:09;;;;;;;2.13;1.98;;;;;;;;;;5074757;28;20209;-42
2021/04/21 02:56:57;;;;;;;1.90;1.80;;;;;;;;;;5063496;28;20430;-42
2021/04/21 02:59:41;;;;;;;2.30;2.10;;;;;;;;;;5057466;28;20234;-42
2021/04/21 03:02:11;;;;;;;2.10;2.00;;;;;;;;;;5057623;28;20207;-42
2021/04/21 03:04:43;;;;;;;1.92;1.83;;;;;;;;;;5056249;28;20258;-42
2021/04/21 03:07:18;;;;;;;2.40;2.20;;;;;;;;;;5069686;28;20182;-42
2021/04/21 03:09:51;;;;;;;2.20;2.00;;;;;;;;;;5075718;28;20196;-42
2021/04/21 03:12:19;;;;;;;3.28;2.17;;;;;;;;;;5070437;28;20182;-42
2021/04/21 03:14:47;;;;;;;2.45;2.25;;;;;;;;;;5070017;28;20245;-42
2021/04/21 03:17:14;;;;;;;2.33;2.13;;;;;;;;;;5076753;28;20789;-42
2021/04/21 03:19:44;;;;;;;1.90;1.80;;;;;;;;;;5070225;28;20211;-41
2021/04/21 03:22:15;;;;;;;1.90;1.80;;;;;;;;;;5062776;28;20269;-41
2021/04/21 03:24:45;;;;;;;2.25;1.80;;;;;;;;;;5068022;28;20214;-41
2021/04/21 03:27:12;;;;;;;2.05;1.95;;;;;;;;;;5060709;28;20244;-41
2021/04/21 03:29:38;;;;;;;2.30;2.10;;;;;;;;;;5074629;28;20186;-41
2021/04/21 03:32:06;;;;;;;2.20;2.00;;;;;;;;;;5069230;28;20183;-41
2021/04/21 03:34:32;;;;;;;1.98;1.88;;;;;;;;;;5058220;28;20594;-41
2021/04/21 03:36:58;;;;;;;2.00;1.90;;;;;;;;;;5062741;28;20185;-41
2021/04/21 03:39:25;;;;;;;2.35;2.03;;;;;;;;;;5057363;28;20225;-42
2021/04/21 03:41:51;;;;;;;2.03;1.73;;;;;;;;;;5059690;28;20502;-42
2021/04/21 03:44:17;;;;;;;1.92;1.83;;;;;;;;;;5064150;28;20216;-42
2021/04/21 03:46:43;;;;;;;1.90;1.80;;;;;;;;;;5075965;28;20205;-42
2021/04/21 03:49:11;;;;;;;2.13;1.95;;;;;;;;;;5074604;28;20288;-42
2021/04/21 03:51:37;;;;;;;1.98;1.77;;;;;;;;;;5067978;28;20581;-42
2021/04/21 03:54:04;;;;;;;1.95;1.85;;;;;;;;;;5056256;28;20187;-42
2021/04/21 03:56:30;;;;;;;2.10;2.00;;;;;;;;;;5060950;28;20189;-42
2021/04/21 03:58:57;;;;;;;1.90;1.80;;;;;;;;;;5056735;28;20207;-42
2021/04/21 04:01:24;;;;;;;1.80;1.70;;;;;;;;;;5055590;28;20229;-42
2021/04/21 04:03:51;;;;;;;1.95;1.85;;;;;;;;;;5065567;28;20628;-42
2021/04/21 04:06:22;;;;;;;2.10;1.90;;;;;;;;;;5056021;28;20574;-42
2021/04/21 04:08:49;;;;;;;1.80;1.70;;;;;;;;;;5065825;28;20216;-42
2021/04/21 04:11:16;;;;;;;2.10;2.00;;;;;;;;;;5074852;28;20188;-42
2021/04/21 04:13:47;;;;;;;1.85;1.75;;;;;;;;;;5063417;28;20175;-42
2021/04/21 04:16:13;;;;;;;2.13;1.92;;;;;;;;;;5071858;28;20175;-42
2021/04/21 04:18:40;;;;;;;1.85;1.75;;;;;;;;;;5062904;28;20206;-42
2021/04/21 04:21:08;;;;;;;2.10;2.00;;;;;;;;;;5067391;28;20198;-42
2021/04/21 04:23:36;;;;;;;2.25;2.08;;;;;;;;;;5075304;28;20166;-42
2021/04/21 04:26:03;;;;;;;1.95;1.85;;;;;;;;;;5075697;28;20170;-42
2021/04/21 04:28:29;;;;;;;1.80;1.70;;;;;;;;;;5059983;28;20285;-42
2021/04/21 04:30:56;;;;;;;1.90;1.80;;;;;;;;;;5063546;28;20554;-42
2021/04/21 04:33:23;;;;;;;2.22;1.98;;;;;;;;;;5071978;28;20179;-42
2021/04/21 04:35:50;;;;;;;2.40;2.13;;;;;;;;;;5055555;28;20170;-42
2021/04/21 04:38:16;;;;;;;4.32;2.15;;;;;;;;;;5055120;28;20171;-42
2021/04/21 04:40:42;;;;;;;2.17;1.98;;;;;;;;;;5067057;28;20214;-42
2021/04/21 04:43:09;;;;;;;2.35;2.15;;;;;;;;;;5064866;28;20179;-42
2021/04/21 04:45:37;;;;;;;2.22;2.03;;;;;;;;;;5060793;28;20179;-42
2021/04/21 04:48:04;;;;;;;2.22;1.98;;;;;;;;;;5058167;28;20224;-42
2021/04/21 04:50:31;;;;;;;1.95;1.85;;;;;;;;;;5063340;28;20261;-42
2021/04/21 04:52:58;;;;;;;2.13;1.92;;;;;;;;;;5064730;28;20201;-42
2021/04/21 04:55:25;;;;;;;2.85;2.13;;;;;;;;;;5062537;28;20192;-42
2021/04/21 04:57:52;;;;;;;2.30;2.00;;;;;;;;;;5060209;28;20185;-42
2021/04/21 05:00:20;;;;;;;2.40;1.88;;;;;;;;;;5073033;28;20214;-42
2021/04/21 05:02:55;;;;;;;2.22;1.98;;;;;;;;;;5073814;28;20190;-42
2021/04/21 05:05:21;;;;;;;2.20;2.10;;;;;;;;;;5074712;28;20508;-42
2021/04/21 05:07:53;;;;;;;1.80;1.70;;;;;;;;;;5067447;28;20176;-42
2021/04/21 05:10:29;;;;;;;2.20;2.00;;;;;;;;;;5058537;28;20361;-42
2021/04/21 05:12:59;;;;;;;2.13;1.92;;;;;;;;;;5065829;28;20178;-42
2021/04/21 05:15:46;;;;;;;2.17;1.98;;;;;;;;;;5074902;28;20182;-42
2021/04/21 05:18:28;;;;;;;2.03;1.92;;;;;;;;;;5041117;28;20233;-42
2021/04/21 05:21:08;;;;;;;2.10;1.90;;;;;;;;;;5070916;28;20414;-42
2021/04/21 05:23:34;;;;;;;2.20;2.00;;;;;;;;;;5065444;28;20197;-42
2021/04/21 05:26:00;;;;;;;2.42;1.95;;;;;;;;;;5063499;28;20178;-42
2021/04/21 05:28:35;;;;;;;2.55;1.80;;;;;;;;;;5058771;28;20640;-42
2021/04/21 05:31:28;;;;;;;4.22;2.28;;;;;;;;;;5054247;28;20235;-42
2021/04/21 05:34:12;;;;;;;4.47;2.10;;;;;;;;;;5069254;28;20194;-42
2021/04/21 05:37:13;;;;;;;2.88;2.30;;;;;;;;;;5073680;28;20179;-42
2021/04/21 05:40:12;;;;;;;2.70;2.40;;;;;;;;;;5012778;28;20277;-42
2021/04/21 05:42:57;;;;;;;2.58;2.22;;;;;;;;;;5023175;28;20179;-42
2021/04/21 05:45:38;;;;;;;4.00;2.67;;;;;;;;;;5064283;28;20204;-42
2021/04/21 05:48:23;;;;;;;2.67;2.33;;;;;;;;;;5063236;28;20550;-43
2021/04/21 05:50:58;;;;;;;5.13;2.78;;;;;;;;;;5063302;28;20183;-43
2021/04/21 05:53:43;;;;;;;6.85;2.78;;;;;;;;;;5072695;28;20426;-43
2021/04/21 05:56:28;;;;;;;5.45;2.95;;;;;;;;;;5074427;28;20534;-43
2021/04/21 05:59:09;;;;;;;7.47;3.63;;;;;;;;;;5061509;28;20208;-43
2021/04/21 06:01:35;;;;;;;9.65;3.55;;;;;;;;;;5067965;28;20195;-43
2021/04/21 06:04:02;;;;;;;6.28;3.40;;;;;;;;;;5060372;28;20186;-43
2021/04/21 06:06:28;;;;;;;7.00;3.53;;;;;;;;;;5066038;28;20227;-43
2021/04/21 06:08:55;;;;;;;9.43;3.88;;;;;;;;;;5069171;28;20184;-43
2021/04/21 06:11:28;;;;;;;7.82;3.58;;;;;;;;;;5064120;28;20179;-43
2021/04/21 06:13:56;;;;;;;10.65;3.55;;;;;;;;;;5065029;28;20187;-43
2021/04/21 06:16:22;;;;;;;8.95;3.67;;;;;;;;;;5058015;28;20331;-44
2021/04/21 06:18:52;;;;;;;7.32;3.72;;;;;;;;;;5073537;28;20645;-44
2021/04/21 06:21:18;;;;;;;7.50;3.67;;;;;;;;;;5064398;28;20172;-44
2021/04/21 06:23:44;;;;;;;7.45;4.00;;;;;;;;;;5062695;28;20178;-43
2021/04/21 06:26:10;;;;;;;11.27;3.88;;;;;;;;;;5068860;28;20355;-43
2021/04/21 06:28:36;;;;;;;11.73;3.20;;;;;;;;;;5072017;28;20178;-43
2021/04/21 06:31:05;;;;;;;8.75;3.20;;;;;;;;;;5073303;28;20175;-43
2021/04/21 06:33:34;;;;;;;10.75;3.35;;;;;;;;;;5061570;28;20168;-44
2021/04/21 06:36:01;;;;;;;6.43;3.33;;;;;;;;;;5054304;28;20612;-43
2021/04/21 06:38:28;;;;;;;6.03;3.28;;;;;;;;;;5067072;28;20221;-43
2021/04/21 06:40:55;;;;;;;5.57;3.55;;;;;;;;;;5072531;28;20178;-44
2021/04/21 06:43:28;;;;;;;9.48;3.30;;;;;;;;;;5076600;28;20170;-44
2021/04/21 06:45:54;;;;;;;8.25;3.38;;;;;;;;;;5076006;28;20163;-44
2021/04/21 06:48:27;;;;;;;4.65;3.38;;;;;;;;;;5068201;28;20249;-44
2021/04/21 06:50:53;;;;;;;5.40;3.55;;;;;;;;;;5065666;28;20179;-44
2021/04/21 06:53:27;;;;;;;5.75;3.35;;;;;;;;;;5058206;28;20186;-44
2021/04/21 06:55:55;;;;;;;5.05;3.53;;;;;;;;;;5062276;28;20186;-44
2021/04/21 06:58:22;;;;;;;4.97;3.03;;;;;;;;;;5060351;28;20477;-44
2021/04/21 07:00:48;;;;;;;4.00;3.33;;;;;;;;;;5076771;28;20209;-44
2021/04/21 07:03:18;;;;;;;5.35;3.25;;;;;;;;;;5068701;28;20191;-44
2021/04/21 07:05:45;;;;;;;4.55;3.00;;;;;;;;;;5073329;28;20837;-44
2021/04/21 07:08:15;;;;;;;5.70;3.20;;;;;;;;;;5077017;28;20225;-44
2021/04/21 07:10:44;;;;;;;3.42;3.03;;;;;;;;;;5076586;28;20186;-44
2021/04/21 07:13:13;;;;;;;4.55;3.03;;;;;;;;;;5065646;28;20179;-44
2021/04/21 07:15:39;;;;;;;3.83;3.08;;;;;;;;;;5058780;28;20322;-44
2021/04/21 07:18:07;;;;;;;3.58;3.25;;;;;;;;;;5057894;28;20265;-44
2021/04/21 07:20:34;;;;;;;5.18;3.50;;;;;;;;;;5076446;28;20493;-44
2021/04/21 07:23:00;;;;;;;4.82;3.28;;;;;;;;;;5076503;28;20171;-44
2021/04/21 07:25:26;;;;;;;4.07;3.17;;;;;;;;;;5060884;28;20187;-44
2021/04/21 07:27:54;;;;;;;5.75;3.45;;;;;;;;;;5073230;28;20551;-44
2021/04/21 07:30:24;;;;;;;3.75;2.90;;;;;;;;;;5063525;28;20611;-44
2021/04/21 07:32:50;;;;;;;4.00;3.20;;;;;;;;;;5076519;28;20185;-44
2021/04/21 07:35:17;;;;;;;6.43;3.03;;;;;;;;;;5076029;28;20178;-44
2021/04/21 07:37:44;;;;;;;3.58;3.17;;;;;;;;;;5056820;28;20187;-44
2021/04/21 07:40:19;;;;;;;5.85;3.38;;;;;;;;;;5072930;28;20198;-44
2021/04/21 07:42:45;;;;;;;6.20;3.25;;;;;;;;;;5072305;28;20184;-44
2021/04/21 07:45:12;;;;;;;5.05;2.75;;;;;;;;;;5071096;28;20175;-44
2021/04/21 07:47:38;;;;;;;5.38;3.70;;;;;;;;;;5059232;28;20203;-44
2021/04/21 07:50:06;;;;;;;3.38;3.03;;;;;;;;;;5063614;28;20682;-44
2021/04/21 07:52:31;;;;;;;3.05;2.70;;;;;;;;;;5074259;28;20261;-44
2021/04/21 07:55:13;;;;;;;4.00;3.22;;;;;;;;;;5075880;28;20253;-44
2021/04/21 07:57:39;;;;;;;4.40;3.00;;;;;;;;;;5063664;28;20562;-44
2021/04/21 08:00:10;;;;;;;3.15;2.90;;;;;;;;;;5058569;28;20231;-44
2021/04/21 08:02:36;;;;;;;3.10;2.85;;;;;;;;;;5072448;28;20190;-44
2021/04/21 08:05:07;;;;;;;3.47;2.67;;;;;;;;;;5065957;28;20581;-44
2021/04/21 08:07:33;;;;;;;7.38;3.10;;;;;;;;;;5066236;28;20176;-44
2021/04/21 08:09:59;;;;;;;3.58;2.90;;;;;;;;;;5056038;28;20183;-44
2021/04/21 08:12:27;;;;;;;5.30;2.83;;;;;;;;;;5063821;28;20457;-44
2021/04/21 08:14:57;;;;;;;3.25;2.80;;;;;;;;;;5064004;28;20189;-44
2021/04/21 08:17:23;;;;;;;6.40;2.90;;;;;;;;;;5075278;28;20186;-44
2021/04/21 08:19:54;;;;;;;3.90;2.92;;;;;;;;;;5075611;28;20239;-44
2021/04/21 08:22:24;;;;;;;4.53;2.70;;;;;;;;;;5075427;28;20220;-44
2021/04/21 08:24:50;;;;;;;3.97;2.70;;;;;;;;;;5075069;28;20185;-44
2021/04/21 08:27:17;;;;;;;4.90;2.70;;;;;;;;;;5065096;28;20188;-44
2021/04/21 08:29:44;;;;;;;3.97;2.90;;;;;;;;;;5065464;28;20267;-44
2021/04/21 08:32:11;;;;;;;5.00;2.45;;;;;;;;;;5065046;28;20197;-44
2021/04/21 08:34:37;;;;;;;4.20;2.63;;;;;;;;;;5069855;28;20183;-44
2021/04/21 08:37:05;;;;;;;4.75;2.70;;;;;;;;;;5071468;28;20178;-44
2021/04/21 08:39:31;;;;;;;2.67;2.47;;;;;;;;;;5074284;28;20190;-44
2021/04/21 08:41:58;;;;;;;4.00;2.88;;;;;;;;;;5055383;28;20174;-44
2021/04/21 08:44:25;;;;;;;4.65;2.65;;;;;;;;;;5075177;28;20460;-44
2021/04/21 08:46:53;;;;;;;2.92;2.33;;;;;;;;;;5091519;28;20661;-44
2021/04/21 08:49:20;;;;;;;3.85;2.35;;;;;;;;;;5062093;28;20271;-44
2021/04/21 08:51:46;;;;;;;3.20;2.80;;;;;;;;;;5074692;28;20628;-44
2021/04/21 08:54:13;;;;;;;2.72;2.53;;;;;;;;;;5076565;28;20260;-44
2021/04/21 08:56:41;;;;;;;2.50;2.30;;;;;;;;;;5084993;28;20171;-43
2021/04/21 08:59:08;;;;;;;2.95;2.58;;;;;;;;;;5069402;28;20214;-43
2021/04/21 09:01:34;;;;;;;2.42;2.22;;;;;;;;;;5053850;28;20562;-43
2021/04/21 09:04:00;;;;;;;3.97;2.47;;;;;;;;;;5054844;28;20177;-43
2021/04/21 09:06:26;;;;;;;2.58;2.38;;;;;;;;;;5055001;28;20171;-44
2021/04/21 09:08:55;;;;;;;2.53;2.33;;;;;;;;;;5054221;28;20262;-44
2021/04/21 09:11:22;;;;;;;2.28;2.17;;;;;;;;;;5065829;28;20179;-43
2021/04/21 09:13:48;;;;;;;2.67;2.20;;;;;;;;;;5060025;28;20296;-43
2021/04/21 09:16:14;;;;;;;2.30;2.03;;;;;;;;;;5061020;28;20270;-43
2021/04/21 09:18:40;;;;;;;2.33;2.13;;;;;;;;;;5072253;28;20269;-43
2021/04/21 09:21:16;;;;;;;2.55;2.33;;;;;;;;;;5075230;28;20229;-43
2021/04/21 09:23:43;;;;;;;3.22;2.10;;;;;;;;;;5073454;28;20181;-43
2021/04/21 09:26:16;;;;;;;2.30;2.10;;;;;;;;;;5074502;28;20511;-43
2021/04/21 09:28:43;;;;;;;4.65;2.10;;;;;;;;;;5057253;28;20558;-43
2021/04/21 09:31:13;;;;;;;2.28;2.08;;;;;;;;;;5072417;28;20558;-43
2021/04/21 09:33:40;;;;;;;2.65;2.42;;;;;;;;;;5070546;28;20181;-43
2021/04/21 09:36:06;;;;;;;5.85;2.35;;;;;;;;;;5071630;28;20257;-44
2021/04/21 09:38:32;;;;;;;2.25;2.15;;;;;;;;;;5063808;28;20562;-44
2021/04/21 09:40:58;;;;;;;3.17;2.60;;;;;;;;;;5060662;28;20202;-44
2021/04/21 09:43:26;;;;;;;4.78;2.10;;;;;;;;;;5069186;28;20178;-44
2021/04/21 09:46:01;;;;;;;5.75;2.08;;;;;;;;;;5056475;28;20179;-44
2021/04/21 09:48:35;;;;;;;3.42;2.50;;;;;;;;;;5054784;28;20395;-44
2021/04/21 09:51:02;;;;;;;3.47;2.50;;;;;;;;;;5069392;28;20247;-44
2021/04/21 09:53:28;;;;;;;3.03;2.30;;;;;;;;;;5074882;28;20460;-44
2021/04/21 09:56:01;;;;;;;2.83;2.08;;;;;;;;;;5070725;28;20253;-44
2021/04/21 09:58:38;;;;;;;2.30;2.10;;;;;;;;;;5071093;28;20220;-44
2021/04/21 10:01:34;;;;;;;2.60;2.13;;;;;;;;;;5080312;28;20267;-44
2021/04/21 10:04:07;;;;;;;2.22;2.03;;;;;;;;;;5070100;28;20621;-44
2021/04/21 10:06:34;;;;;;;2.03;1.92;;;;;;;;;;5074291;28;20167;-44
2021/04/21 10:09:00;;;;;;;2.95;2.08;;;;;;;;;;5092393;28;20231;-44
2021/04/21 10:11:27;;;;;;;2.38;2.17;;;;;;;;;;5071034;28;20179;-44
2021/04/21 10:13:55;;;;;;;2.30;2.10;;;;;;;;;;5065941;28;20550;-44
2021/04/21 10:16:22;;;;;;;4.38;2.45;;;;;;;;;;5072963;28;20173;-44
2021/04/21 10:18:48;;;;;;;5.13;2.13;;;;;;;;;;5077908;28;20194;-44
2021/04/21 10:21:15;;;;;;;4.13;2.70;;;;;;;;;;5073477;28;20183;-44
2021/04/21 10:23:42;;;;;;;2.60;2.28;;;;;;;;;;5081400;28;20486;-44
2021/04/21 10:26:10;;;;;;;4.57;2.40;;;;;;;;;;5095579;28;20177;-44
2021/04/21 10:28:37;;;;;;;2.97;2.30;;;;;;;;;;5077389;28;20482;-44
2021/04/21 10:31:06;;;;;;;3.28;2.30;;;;;;;;;;5066091;28;20433;-44
2021/04/21 10:33:33;;;;;;;2.97;2.10;;;;;;;;;;5065780;28;20190;-44
2021/04/21 10:35:59;;;;;;;4.45;2.00;;;;;;;;;;5057803;28;20207;-44
2021/04/21 10:38:26;;;;;;;4.05;1.92;;;;;;;;;;5057871;28;20186;-44
2021/04/21 10:41:12;;;;;;;3.90;2.17;;;;;;;;;;5056768;28;20191;-44
2021/04/21 10:43:39;;;;;;;2.17;1.98;;;;;;;;;;5061649;28;20232;-44
2021/04/21 10:46:05;;;;;;;3.67;1.73;;;;;;;;;;5064493;28;20190;-43
2021/04/21 10:48:41;;;;;;;4.28;1.95;;;;;;;;;;5076762;28;20533;-43
2021/04/21 10:51:25;;;;;;;4.97;2.35;;;;;;;;;;5074855;28;20182;-43
2021/04/21 10:53:51;;;;;;;1.95;1.83;;;;;;;;;;5076418;28;20180;-43
2021/04/21 10:56:21;;;;;;;2.22;2.00;;;;;;;;;;5064424;28;20198;-44
2021/04/21 10:58:51;;;;;;;2.20;2.00;;;;;;;;;;5067134;28;20179;-44
2021/04/21 11:01:33;;;;;;;2.03;1.90;;;;;;;;;;5070411;28;20237;-44
2021/04/21 11:04:00;;;;;;;5.13;2.42;;;;;;;;;;5065283;28;20266;-44
2021/04/21 11:06:35;;;;;;;7.07;2.33;;;;;;;;;;5064760;28;20175;-44
2021/04/21 11:09:01;;;;;;;6.40;2.17;;;;;;;;;;5057001;28;20197;-44
2021/04/21 11:11:33;;;;;;;6.22;2.28;;;;;;;;;;5056267;28;20171;-44
2021/04/21 11:13:59;;;;;;;7.43;2.25;;;;;;;;;;5056844;28;20194;-44
2021/04/21 11:16:31;;;;;;;4.63;2.08;;;;;;;;;;5056879;28;20198;-44
2021/04/21 11:19:16;;;;;;;5.45;2.10;;;;;;;;;;5056819;28;20210;-43
2021/04/21 11:21:42;;;;;;;6.70;2.20;;;;;;;;;;5056269;28;20175;-43
2021/04/21 11:24:08;;;;;;;6.25;2.53;;;;;;;;;;5057443;28;20233;-43
2021/04/21 11:26:38;;;;;;;2.92;2.08;;;;;;;;;;5056702;28;20167;-43
2021/04/21 11:29:04;;;;;;;6.63;2.30;;;;;;;;;;5056723;28;20484;-43
2021/04/21 11:31:43;;;;;;;7.25;2.28;;;;;;;;;;5056274;28;20175;-43
2021/04/21 11:34:21;;;;;;;3.33;1.98;;;;;;;;;;5056806;28;20596;-43
2021/04/21 11:36:54;;;;;;;4.80;2.00;;;;;;;;;;5056718;28;20171;-43
2021/04/21 11:39:39;;;;;;;4.10;2.28;;;;;;;;;;5056498;28;20257;-43
2021/04/21 11:42:17;;;;;;;8.77;2.22;;;;;;;;;;5057090;28;20202;-43
2021/04/21 11:44:52;;;;;;;3.13;1.95;;;;;;;;;;5056649;28;20167;-43
2021/04/21 11:47:37;;;;;;;3.83;1.90;;;;;;;;;;5056397;28;20209;-43
2021/04/21 11:50:06;;;;;;;2.75;1.77;;;;;;;;;;5056324;28;20175;-43
2021/04/21 11:52:45;;;;;;;2.78;1.92;;;;;;;;;;5056025;28;20236;-43
2021/04/21 11:55:18;;;;;;;2.15;1.70;;;;;;;;;;5056382;28;20242;-43
2021/04/21 11:57:50;;;;;;;4.63;2.20;;;;;;;;;;5071090;28;20180;-43
2021/04/21 12:00:16;;;;;;;4.55;2.10;;;;;;;;;;5071450;28;20472;-43
2021/04/21 12:02:42;;;;;;;4.57;2.08;;;;;;;;;;5075663;28;20449;-43
2021/04/21 12:05:08;;;;;;;2.70;1.98;;;;;;;;;;5067178;28;20178;-44
2021/04/21 12:07:35;;;;;;;4.45;2.10;;;;;;;;;;5061078;28;20253;-44
2021/04/21 12:10:01;;;;;;;3.33;1.90;;;;;;;;;;5074409;28;20441;-44
2021/04/21 12:12:27;;;;;;;6.15;2.30;;;;;;;;;;5075139;28;20174;-44
2021/04/21 12:15:06;;;;;;;7.40;1.98;;;;;;;;;;5070490;28;20188;-44
2021/04/21 12:17:33;;;;;;;3.00;1.73;;;;;;;;;;5062245;28;20205;-44
2021/04/21 12:19:59;;;;;;;3.20;2.17;;;;;;;;;;5068740;28;20191;-44
2021/04/21 12:22:41;;;;;;;3.38;2.17;;;;;;;;;;5056140;28;20175;-44
2021/04/21 12:25:08;;;;;;;3.47;2.10;;;;;;;;;;5065144;28;20207;-43
2021/04/21 12:27:34;;;;;;;4.78;1.60;;;;;;;;;;5071801;28;20182;-43
2021/04/21 12:30:29;;;;;;;4.82;2.33;;;;;;;;;;5058713;28;20179;-43
2021/04/21 12:32:56;;;;;;;3.20;1.75;;;;;;;;;;5055142;28;20202;-43
2021/04/21 12:35:22;;;;;;;7.18;2.00;;;;;;;;;;5069500;28;20193;-43
2021/04/21 12:37:58;;;;;;;3.72;2.03;;;;;;;;;;5073367;28;20185;-43
2021/04/21 12:40:27;;;;;;;3.95;1.98;;;;;;;;;;5055529;28;20289;-43
2021/04/21 12:43:06;;;;;;;4.15;1.95;;;;;;;;;;5074884;28;20253;-43
2021/04/21 12:45:32;;;;;;;2.30;1.75;;;;;;;;;;5056753;28;20182;-44
2021/04/21 12:47:58;;;;;;;4.15;2.08;;;;;;;;;;5060876;28;20298;-44
2021/04/21 12:50:31;;;;;;;3.75;1.63;;;;;;;;;;5071053;28;20664;-44
2021/04/21 12:53:13;;;;;;;3.10;2.00;;;;;;;;;;5058925;28;20209;-44
2021/04/21 12:55:39;;;;;;;3.60;1.60;;;;;;;;;;5055086;28;20178;-44
2021/04/21 12:58:05;;;;;;;3.97;2.08;;;;;;;;;;5057392;28;20183;-44
2021/04/21 13:00:32;;;;;;;2.15;1.70;;;;;;;;;;5064813;28;20222;-44
2021/04/21 13:02:58;;;;;;;2.03;1.67;;;;;;;;;;5068430;28;20171;-44
2021/04/21 13:05:42;;;;;;;2.08;1.88;;;;;;;;;;5065733;28;20217;-44
2021/04/21 13:08:21;;;;;;;2.63;1.80;;;;;;;;;;5061800;28;20210;-43
2021/04/21 13:10:47;;;;;;;3.42;1.63;;;;;;;;;;5074268;28;20238;-44
2021/04/21 13:13:20;;;;;;;4.22;1.88;;;;;;;;;;5074825;28;20254;-44
2021/04/21 13:15:46;;;;;;;1.90;1.52;;;;;;;;;;5074667;28;20477;-44
2021/04/21 13:18:13;;;;;;;2.53;1.40;;;;;;;;;;5066227;28;20193;-44
2021/04/21 13:20:38;;;;;;;2.53;1.60;;;;;;;;;;5068468;28;20214;-44
2021/04/21 13:23:18;;;;;;;2.17;1.50;;;;;;;;;;5074407;28;20186;-44
2021/04/21 13:25:54;;;;;;;2.88;1.70;;;;;;;;;;5063651;28;20270;-44
2021/04/21 13:28:20;;;;;;;1.63;1.52;;;;;;;;;;5067113;28;20186;-44
2021/04/21 13:31:02;;;;;;;1.88;1.60;;;;;;;;;;5057225;28;20177;-44
2021/04/21 13:33:28;;;;;;;1.88;1.73;;;;;;;;;;5069819;28;20186;-44
2021/04/21 13:35:54;;;;;;;2.58;1.52;;;;;;;;;;5056285;28;20237;-44
2021/04/21 13:38:20;;;;;;;2.40;1.48;;;;;;;;;;5060156;28;20516;-44
2021/04/21 13:40:46;;;;;;;2.90;1.67;;;;;;;;;;5066340;28;20281;-44
2021/04/21 13:43:12;;;;;;;2.05;1.52;;;;;;;;;;5054552;28;20163;-44
2021/04/21 13:45:38;;;;;;;2.80;1.60;;;;;;;;;;5062178;28;20476;-44
2021/04/21 13:48:04;;;;;;;1.63;1.52;;;;;;;;;;5072354;28;20237;-44
2021/04/21 13:50:30;;;;;;;1.45;1.35;;;;;;;;;;5073950;28;20190;-44
2021/04/21 13:52:56;;;;;;;5.03;1.85;;;;;;;;;;5077261;28;20235;-44
2021/04/21 13:55:22;;;;;;;1.85;1.40;;;;;;;;;;5075460;28;20245;-44
2021/04/21 13:57:48;;;;;;;2.75;1.52;;;;;;;;;;5076624;28;20565;-44
2021/04/21 14:00:14;;;;;;;1.63;1.50;;;;;;;;;;5078434;28;20194;-44
2021/04/21 14:02:40;;;;;;;1.60;1.50;;;;;;;;;;5073584;28;20223;-44
2021/04/21 14:05:07;;;;;;;1.33;1.23;;;;;;;;;;5069417;28;20175;-44
2021/04/21 14:07:33;;;;;;;2.03;1.50;;;;;;;;;;5077478;28;20175;-44
2021/04/21 14:09:59;;;;;;;1.67;1.50;;;;;;;;;;5076718;28;20194;-44
2021/04/21 14:12:25;;;;;;;1.50;1.40;;;;;;;;;;5077439;28;20576;-44
2021/04/21 14:14:51;;;;;;;1.55;1.40;;;;;;;;;;5078321;28;20171;-44
2021/04/21 14:17:17;;;;;;;1.88;1.60;;;;;;;;;;5074385;28;20621;-44
2021/04/21 14:19:43;;;;;;;1.70;1.60;;;;;;;;;;5068814;28;20294;-44
2021/04/21 14:22:09;;;;;;;2.97;1.30;;;;;;;;;;5058782;28;20215;-44
2021/04/21 14:24:36;;;;;;;1.60;1.38;;;;;;;;;;5058152;28;20171;-44
2021/04/21 14:27:02;;;;;;;1.60;1.30;;;;;;;;;;5059236;28;20179;-44
2021/04/21 14:29:28;;;;;;;1.90;1.33;;;;;;;;;;5058039;28;20255;-44
2021/04/21 14:31:54;;;;;;;1.60;1.50;;;;;;;;;;5059424;28;20265;-44
2021/04/21 14:34:20;;;;;;;1.95;1.50;;;;;;;;;;5066319;28;20182;-44
2021/04/21 14:36:48;;;;;;;2.55;1.52;;;;;;;;;;5077713;28;20244;-44
2021/04/21 14:39:14;;;;;;;1.77;1.50;;;;;;;;;;5065613;28;20248;-44
2021/04/21 14:41:41;;;;;;;1.90;1.48;;;;;;;;;;5057160;28;20163;-44
2021/04/21 14:44:08;;;;;;;3.80;1.60;;;;;;;;;;5058895;28;20254;-44
2021/04/21 14:46:34;;;;;;;2.45;1.60;;;;;;;;;;5057380;28;20512;-44
2021/04/21 14:49:00;;;;;;;1.42;1.33;;;;;;;;;;5062766;28;20175;-44
2021/04/21 14:51:26;;;;;;;1.60;1.50;;;;;;;;;;5058427;28;20179;-44
2021/04/21 14:53:52;;;;;;;1.88;1.40;;;;;;;;;;5057508;28;20453;-44
2021/04/21 14:56:18;;;;;;;2.00;1.63;;;;;;;;;;5057441;28;20246;-43
2021/04/21 14:58:44;;;;;;;1.20;1.10;;;;;;;;;;5070416;28;20542;-43
2021/04/21 15:01:12;;;;;;;2.45;1.50;;;;;;;;;;5075067;28;20244;-43